createdAt,value
2023-02-11T00:00:54.136Z,35.80
2023-02-11T00:01:54.107Z,33.66
2023-02-11T00:02:54.059Z,31.18
2023-02-11T00:03:54.030Z,29.24
2023-02-11T00:04:54.003Z,30.82
2023-02-11T00:05:53.962Z,29.84
2023-02-11T00:06:53.924Z,31.23
2023-02-11T01:26:51.292Z,43.42
2023-02-11T01:27:51.270Z,38.78
2023-02-11T01:28:51.253Z,36.47
2023-02-11T01:29:51.206Z,35.95
2023-02-11T01:30:51.217Z,34.92
2023-02-11T01:31:51.194Z,31.47
2023-02-11T01:32:51.119Z,34.00
2023-02-11T01:33:51.100Z,32.20
2023-02-11T01:34:51.074Z,30.53
2023-02-11T01:35:51.397Z,27.41
2023-02-11T01:36:51.011Z,26.00
2023-02-11T01:37:50.984Z,28.13
2023-02-11T01:38:50.961Z,28.51
2023-02-11T01:39:50.921Z,30.55
2023-02-11T01:40:50.882Z,33.67
2023-02-11T01:41:50.861Z,36.96
2023-02-11T01:42:51.226Z,32.40
2023-02-11T01:43:50.811Z,28.16
2023-02-11T01:44:50.747Z,25.82
2023-02-11T01:45:51.088Z,25.65
2023-02-11T01:46:50.771Z,25.96
2023-02-11T01:47:50.659Z,28.27
2023-02-11T01:48:50.665Z,32.29
2023-02-11T01:49:50.595Z,35.19
2023-02-11T01:50:50.558Z,39.64
2023-02-11T01:51:50.528Z,40.00
2023-02-11T01:52:50.497Z,37.02
2023-02-11T01:53:50.497Z,33.72
2023-02-11T01:54:50.428Z,34.77
2023-02-11T01:55:50.704Z,33.60
2023-02-11T01:56:50.370Z,33.61
2023-02-11T01:57:50.331Z,34.35
2023-02-11T01:58:50.296Z,34.32
2023-02-11T01:59:50.270Z,36.83
2023-02-11T02:00:50.238Z,36.49
2023-02-11T02:01:50.264Z,37.90
2023-02-11T02:02:50.177Z,37.79
2023-02-11T02:03:50.154Z,39.87
2023-02-11T02:04:50.109Z,39.31
2023-02-11T02:05:50.380Z,38.24
2023-02-11T02:06:50.037Z,38.02
2023-02-11T02:07:49.995Z,37.02
2023-02-11T02:08:49.973Z,36.49
2023-02-11T02:09:49.942Z,35.23
2023-02-11T02:10:49.896Z,30.75
2023-02-11T02:11:49.874Z,27.66
2023-02-11T02:12:49.830Z,29.16
2023-02-11T02:13:49.796Z,32.60
2023-02-11T02:14:49.753Z,34.02
2023-02-11T02:15:50.035Z,36.23
2023-02-11T02:16:49.673Z,38.76
2023-02-11T02:17:49.648Z,37.59
2023-02-11T02:18:49.614Z,28.78
2023-02-11T02:19:49.600Z,25.13
2023-02-11T02:20:49.577Z,25.00
2023-02-11T02:21:49.511Z,27.72
2023-02-11T02:22:49.503Z,29.82
2023-02-11T02:23:49.436Z,31.57
2023-02-11T02:24:49.387Z,32.63
2023-02-11T02:25:49.814Z,34.90
2023-02-11T02:26:49.328Z,35.14
2023-02-11T02:27:49.287Z,32.42
2023-02-11T02:28:49.235Z,28.49
2023-02-11T02:29:49.202Z,28.04
2023-02-11T02:30:49.179Z,28.75
2023-02-11T02:31:49.155Z,31.07
2023-02-11T02:32:49.077Z,31.33
2023-02-11T02:33:49.070Z,35.29
2023-02-11T02:34:49.028Z,40.15
2023-02-11T02:35:49.260Z,40.39
2023-02-11T02:36:48.954Z,34.97
2023-02-11T02:37:48.927Z,33.62
2023-02-11T02:38:48.900Z,33.39
2023-02-11T02:39:48.854Z,34.60
2023-02-11T02:40:48.828Z,36.21
2023-02-11T02:41:48.812Z,35.61
2023-02-11T02:42:48.759Z,34.02
2023-02-11T02:43:48.734Z,34.35
2023-02-11T02:44:48.717Z,31.64
2023-02-11T02:45:49.143Z,28.85
2023-02-11T02:46:48.674Z,26.05
2023-02-11T02:47:48.616Z,27.71
2023-02-11T02:48:48.584Z,31.50
2023-02-11T02:49:48.568Z,30.21
2023-02-11T02:50:48.541Z,29.18
2023-02-11T02:51:48.517Z,30.03
2023-02-11T02:52:48.463Z,27.47
2023-02-11T02:53:48.449Z,25.33
2023-02-11T02:54:48.418Z,25.04
2023-02-11T02:55:48.600Z,25.88
2023-02-11T02:56:48.353Z,29.42
2023-02-11T02:57:48.314Z,33.39
2023-02-11T02:58:48.284Z,34.53
2023-02-11T02:59:48.242Z,37.45
2023-02-11T03:00:48.217Z,41.78
2023-02-11T03:01:48.177Z,41.39
2023-02-11T03:02:48.144Z,40.36
2023-02-11T03:03:48.146Z,35.99
2023-02-11T03:04:48.089Z,37.21
2023-02-11T03:05:48.362Z,39.64
2023-02-11T03:06:48.040Z,41.02
2023-02-11T03:07:48.021Z,44.17
2023-02-11T03:08:47.985Z,46.41
2023-02-11T03:09:47.960Z,49.42
2023-02-11T03:10:47.942Z,47.87
2023-02-11T03:11:47.906Z,45.69
2023-02-11T03:12:47.927Z,42.73
2023-02-11T03:13:47.854Z,46.64
2023-02-11T03:14:47.821Z,48.52
2023-02-11T03:15:47.925Z,49.14
2023-02-11T03:16:47.754Z,49.31
2023-02-11T03:17:47.727Z,53.13
2023-02-11T03:18:47.703Z,56.21
2023-02-11T03:19:47.660Z,51.71
2023-02-11T03:20:47.629Z,52.59
2023-02-11T03:21:47.593Z,53.73
2023-02-11T03:22:47.565Z,53.87
2023-02-11T03:23:47.537Z,58.60
2023-02-11T03:24:47.502Z,59.42
2023-02-11T03:25:47.517Z,58.44
2023-02-11T03:26:47.440Z,58.43
2023-02-11T03:27:47.419Z,59.86
2023-02-11T03:28:47.389Z,58.05
2023-02-11T03:29:47.363Z,55.30
2023-02-11T03:30:47.369Z,52.72
2023-02-11T03:31:47.310Z,53.71
2023-02-11T03:32:47.260Z,56.91
2023-02-11T03:33:47.234Z,60.47
2023-02-11T03:34:47.194Z,64.30
2023-02-11T03:35:47.198Z,67.13
2023-02-11T03:36:47.178Z,67.01
2023-02-11T03:37:47.105Z,67.31
2023-02-11T03:38:47.071Z,64.27
2023-02-11T03:39:47.047Z,62.65
2023-02-11T03:40:47.008Z,63.12
2023-02-11T03:41:46.978Z,64.32
2023-02-11T03:42:46.943Z,60.87
2023-02-11T03:43:46.929Z,58.60
2023-02-11T03:44:46.877Z,60.03
2023-02-11T03:45:46.880Z,60.61
2023-02-11T03:46:46.819Z,50.90
2023-02-11T03:47:46.793Z,43.11
2023-02-11T03:48:46.767Z,39.79
2023-02-11T03:49:46.745Z,41.85
2023-02-11T03:50:46.718Z,43.38
2023-02-11T03:51:46.685Z,44.20
2023-02-11T03:52:47.519Z,47.14
2023-02-11T03:53:46.632Z,51.75
2023-02-11T03:54:46.623Z,51.69
2023-02-11T03:55:46.592Z,50.91
2023-02-11T03:56:46.566Z,51.81
2023-02-11T03:57:46.544Z,53.56
2023-02-11T03:58:46.528Z,57.67
2023-02-11T03:59:46.491Z,60.94
2023-02-11T04:00:46.533Z,60.43
2023-02-11T04:01:46.474Z,63.02
2023-02-11T04:02:46.448Z,66.54
2023-02-11T04:03:46.399Z,66.26
2023-02-11T04:04:46.397Z,64.10
2023-02-11T04:05:46.378Z,61.84
2023-02-11T04:06:46.334Z,59.98
2023-02-11T04:07:46.296Z,59.49
2023-02-11T04:08:46.294Z,61.70
2023-02-11T04:09:46.253Z,59.79
2023-02-11T04:10:46.214Z,60.57
2023-02-11T04:11:46.195Z,64.19
2023-02-11T04:12:46.171Z,63.76
2023-02-11T04:13:46.133Z,61.88
2023-02-11T04:14:46.106Z,60.79
2023-02-11T04:15:48.826Z,61.65
2023-02-11T04:16:46.063Z,62.48
2023-02-11T04:17:46.048Z,66.94
2023-02-11T04:18:46.010Z,67.34
2023-02-11T04:19:45.978Z,67.70
2023-02-11T04:20:45.946Z,70.69
2023-02-11T04:21:45.927Z,69.54
2023-02-11T04:22:45.883Z,66.96
2023-02-11T04:23:45.853Z,65.01
2023-02-11T04:24:45.840Z,66.41
2023-02-11T04:25:45.798Z,67.39
2023-02-11T04:26:45.782Z,69.04
2023-02-11T04:27:45.750Z,71.92
2023-02-11T04:28:45.748Z,73.73
2023-02-11T04:29:45.721Z,76.15
2023-02-11T04:30:45.787Z,76.30
2023-02-11T04:31:45.717Z,73.73
2023-02-11T04:32:45.648Z,72.31
2023-02-11T04:33:45.625Z,70.86
2023-02-11T04:34:45.602Z,71.04
2023-02-11T04:35:45.576Z,73.01
2023-02-11T04:36:46.575Z,73.43
2023-02-11T04:37:45.513Z,76.13
2023-02-11T04:38:45.493Z,74.66
2023-02-11T04:39:45.464Z,63.13
2023-02-11T04:40:45.450Z,60.18
2023-02-11T04:41:45.418Z,58.55
2023-02-11T04:42:45.393Z,58.27
2023-02-11T04:43:45.362Z,61.13
2023-02-11T04:44:45.353Z,63.22
2023-02-11T04:45:45.320Z,63.85
2023-02-11T04:46:45.288Z,66.57
2023-02-11T04:47:45.248Z,67.45
2023-02-11T04:48:45.221Z,66.42
2023-02-11T04:49:45.187Z,67.71
2023-02-11T04:50:45.153Z,67.57
2023-02-11T04:51:47.579Z,71.00
2023-02-11T04:52:45.109Z,71.08
2023-02-11T04:53:45.077Z,71.67
2023-02-11T04:54:45.055Z,72.48
2023-02-11T04:55:45.024Z,74.17
2023-02-11T04:56:44.992Z,71.14
2023-02-11T04:57:44.961Z,67.10
2023-02-11T04:58:44.928Z,68.58
2023-02-11T04:59:44.907Z,70.48
2023-02-11T05:00:44.885Z,74.15
2023-02-11T05:01:44.861Z,74.22
2023-02-11T05:02:44.840Z,79.16
2023-02-11T05:03:44.908Z,82.00
2023-02-11T05:04:44.782Z,79.87
2023-02-11T05:05:44.755Z,81.84
2023-02-11T05:06:44.763Z,81.04
2023-02-11T05:07:44.717Z,81.50
2023-02-11T05:08:44.701Z,84.21
2023-02-11T05:09:44.669Z,84.39
2023-02-11T05:10:44.676Z,86.53
2023-02-11T05:11:44.610Z,87.72
2023-02-11T05:12:44.586Z,86.91
2023-02-11T05:13:44.564Z,83.16
2023-02-11T05:14:44.536Z,78.54
2023-02-11T05:15:44.524Z,74.21
2023-02-11T05:16:44.663Z,72.61
2023-02-11T05:17:44.466Z,71.56
2023-02-11T05:18:44.456Z,73.43
2023-02-11T05:19:44.430Z,73.56
2023-02-11T05:20:44.403Z,74.62
2023-02-11T05:22:00.224Z,73.18
2023-02-11T05:22:45.362Z,73.24
2023-02-11T05:23:44.339Z,66.18
2023-02-11T05:24:44.316Z,61.73
2023-02-11T05:25:44.303Z,56.15
2023-02-11T05:26:44.269Z,56.89
2023-02-11T05:27:44.244Z,57.81
2023-02-11T05:28:44.253Z,58.33
2023-02-11T05:29:44.209Z,58.27
2023-02-11T05:30:44.197Z,62.29
2023-02-11T05:31:44.170Z,59.95
2023-02-11T05:32:44.155Z,56.42
2023-02-11T05:33:44.116Z,55.85
2023-02-11T05:34:44.096Z,57.95
2023-02-11T05:35:44.080Z,62.57
2023-02-11T05:36:44.061Z,68.66
2023-02-11T05:37:44.042Z,71.31
2023-02-11T05:38:44.041Z,75.73
2023-02-11T05:39:43.997Z,77.17
2023-02-11T05:40:44.040Z,79.47
2023-02-11T05:41:43.955Z,81.37
2023-02-11T05:42:43.939Z,82.12
2023-02-11T05:43:43.911Z,85.89
2023-02-11T05:44:43.886Z,85.92
2023-02-11T05:45:43.862Z,86.21
2023-02-11T05:46:43.936Z,86.98
2023-02-11T05:47:43.804Z,89.08
2023-02-11T05:48:43.773Z,89.81
2023-02-11T05:49:43.749Z,90.87
2023-02-11T05:50:43.722Z,92.97
2023-02-11T05:51:43.699Z,93.96
2023-02-11T05:52:43.705Z,97.75
2023-02-11T05:53:43.649Z,100.24
2023-02-11T05:54:43.635Z,101.08
2023-02-11T05:55:43.617Z,104.74
2023-02-11T05:56:44.915Z,106.02
2023-02-11T05:57:43.562Z,106.97
2023-02-11T05:58:43.539Z,106.33
2023-02-11T05:59:43.514Z,105.37
2023-02-11T06:00:43.481Z,105.57
2023-02-11T06:01:43.457Z,104.06
2023-02-11T06:02:43.567Z,104.37
2023-02-11T06:03:43.439Z,101.21
2023-02-11T06:04:43.385Z,103.66
2023-02-11T06:05:43.358Z,104.96
2023-02-11T06:06:43.332Z,103.71
2023-02-11T06:07:43.302Z,103.86
2023-02-11T06:08:43.283Z,103.88
2023-02-11T06:09:43.250Z,107.90
2023-02-11T06:10:43.228Z,108.71
2023-02-11T06:11:43.195Z,111.15
2023-02-11T06:12:43.178Z,110.35
2023-02-11T06:13:43.144Z,113.62
2023-02-11T06:14:43.123Z,114.98
2023-02-11T06:15:43.118Z,115.65
2023-02-11T06:16:43.081Z,117.28
2023-02-11T06:17:43.075Z,120.03
2023-02-11T06:18:43.017Z,120.88
2023-02-11T06:19:42.994Z,118.11
2023-02-11T06:20:42.977Z,116.92
2023-02-11T06:21:44.564Z,115.10
2023-02-11T06:22:42.941Z,111.03
2023-02-11T06:23:42.898Z,103.99
2023-02-11T06:25:00.293Z,101.21
2023-02-11T06:25:43.858Z,96.87
2023-02-11T06:26:42.867Z,98.12
2023-02-11T06:27:42.823Z,100.26
2023-02-11T06:28:42.931Z,101.21
2023-02-11T06:29:42.756Z,104.30
2023-02-11T06:30:42.794Z,108.25
2023-02-11T06:31:42.809Z,110.40
2023-02-11T06:32:45.254Z,109.55
2023-02-11T06:33:42.662Z,108.94
2023-02-11T06:34:42.643Z,111.41
2023-02-11T06:35:42.618Z,114.17
2023-02-11T06:36:42.584Z,114.40
2023-02-11T06:37:42.585Z,115.67
2023-02-11T06:38:42.535Z,118.08
2023-02-11T06:39:42.505Z,118.00
2023-02-11T06:40:42.475Z,116.03
2023-02-11T06:41:42.450Z,116.51
2023-02-11T06:42:42.442Z,107.74
2023-02-11T06:43:42.407Z,107.36
2023-02-11T06:44:42.377Z,106.04
2023-02-11T06:45:42.355Z,107.09
2023-02-11T06:46:42.401Z,108.75
2023-02-11T06:47:42.302Z,110.62
2023-02-11T06:48:44.734Z,110.80
2023-02-11T06:49:42.264Z,110.87
2023-02-11T06:50:42.244Z,108.42
2023-02-11T06:51:42.194Z,109.40
2023-02-11T06:52:42.178Z,110.68
2023-02-11T06:53:42.148Z,111.17
2023-02-11T06:54:42.104Z,111.41
2023-02-11T06:55:42.086Z,112.40
2023-02-11T06:56:42.045Z,113.23
2023-02-11T06:57:42.008Z,112.98
2023-02-11T06:58:41.975Z,111.59
2023-02-11T06:59:41.950Z,114.25
2023-02-11T07:00:41.922Z,115.49
2023-02-11T07:01:41.944Z,114.75
2023-02-11T07:02:41.881Z,115.16
2023-02-11T07:03:41.823Z,116.49
2023-02-11T07:04:41.791Z,118.27
2023-02-11T07:05:41.767Z,117.15
2023-02-11T07:06:41.725Z,121.81
2023-02-11T07:07:41.693Z,123.37
2023-02-11T07:08:41.677Z,124.54
2023-02-11T07:09:41.633Z,125.22
2023-02-11T07:10:41.607Z,127.16
2023-02-11T07:11:41.564Z,127.44
2023-02-11T07:12:41.545Z,129.61
2023-02-11T07:13:41.522Z,128.92
2023-02-11T07:14:41.477Z,130.51
2023-02-11T07:15:41.445Z,129.05
2023-02-11T07:16:41.440Z,128.14
2023-02-11T07:17:41.365Z,127.49
2023-02-11T07:18:41.341Z,127.87
2023-02-11T07:19:41.330Z,130.32
2023-02-11T07:20:41.284Z,129.41
2023-02-11T07:21:41.265Z,125.45
2023-02-11T07:22:41.225Z,124.97
2023-02-11T07:23:41.203Z,130.15
2023-02-11T07:24:41.177Z,129.65
2023-02-11T07:25:41.125Z,132.69
2023-02-11T07:26:41.080Z,133.18
2023-02-11T07:27:41.044Z,135.28
2023-02-11T07:28:41.015Z,134.95
2023-02-11T07:29:40.994Z,132.69
2023-02-11T07:30:41.017Z,133.49
2023-02-11T07:31:40.971Z,131.53
2023-02-11T07:32:40.879Z,133.21
2023-02-11T07:33:40.850Z,132.36
2023-02-11T07:34:40.877Z,131.20
2023-02-11T07:35:42.670Z,133.73
2023-02-11T07:36:40.784Z,134.07
2023-02-11T07:37:40.759Z,131.49
2023-02-11T07:38:40.751Z,131.11
2023-02-11T07:39:40.717Z,131.67
2023-02-11T07:40:40.681Z,131.93
2023-02-11T07:41:40.660Z,131.55
2023-02-11T07:42:40.625Z,132.69
2023-02-11T07:43:40.595Z,131.80
2023-02-11T07:44:40.572Z,131.13
2023-02-11T07:45:40.542Z,132.53
2023-02-11T07:46:40.555Z,133.74
2023-02-11T07:47:40.498Z,134.49
2023-02-11T07:48:40.467Z,131.65
2023-02-11T07:49:40.446Z,132.72
2023-02-11T07:50:40.432Z,136.47
2023-02-11T07:51:40.405Z,137.79
2023-02-11T07:52:40.364Z,140.22
2023-02-11T07:53:40.330Z,140.39
2023-02-11T07:54:40.331Z,142.44
2023-02-11T07:55:40.262Z,142.61
2023-02-11T07:56:40.236Z,142.75
2023-02-11T07:57:40.201Z,143.45
2023-02-11T07:58:40.177Z,145.60
2023-02-11T07:59:40.150Z,143.49
2023-02-11T08:00:40.133Z,146.79
2023-02-11T08:01:40.087Z,146.66
2023-02-11T08:02:40.056Z,144.64
2023-02-11T08:03:40.022Z,146.53
2023-02-11T08:04:39.994Z,146.08
2023-02-11T08:05:39.976Z,146.78
2023-02-11T08:06:39.946Z,146.50
2023-02-11T08:07:39.912Z,147.38
2023-02-11T08:08:39.875Z,146.70
2023-02-11T08:09:39.861Z,149.15
2023-02-11T08:10:39.816Z,148.83
2023-02-11T08:11:39.787Z,147.74
2023-02-11T08:12:39.774Z,147.19
2023-02-11T08:13:39.730Z,146.34
2023-02-11T08:14:39.713Z,148.25
2023-02-11T08:15:39.681Z,146.14
2023-02-11T08:16:39.724Z,149.00
2023-02-11T08:17:39.613Z,150.70
2023-02-11T08:18:39.605Z,151.99
2023-02-11T08:19:39.579Z,149.67
2023-02-11T08:20:39.544Z,149.74
2023-02-11T08:21:39.512Z,149.38
2023-02-11T08:22:39.483Z,150.05
2023-02-11T08:23:39.458Z,152.24
2023-02-11T08:24:39.443Z,153.09
2023-02-11T08:25:39.387Z,154.26
2023-02-11T08:26:39.354Z,153.62
2023-02-11T08:27:39.326Z,154.01
2023-02-11T08:28:39.294Z,154.06
2023-02-11T08:29:39.286Z,154.97
2023-02-11T08:30:39.369Z,153.82
2023-02-11T08:31:39.468Z,152.86
2023-02-11T08:32:39.169Z,154.09
2023-02-11T08:33:39.134Z,154.75
2023-02-11T08:34:39.116Z,154.66
2023-02-11T08:35:39.092Z,154.75
2023-02-11T08:36:39.049Z,154.58
2023-02-11T08:37:39.015Z,156.66
2023-02-11T08:38:38.985Z,154.78
2023-02-11T08:39:38.969Z,154.38
2023-02-11T08:40:38.920Z,153.79
2023-02-11T08:41:38.903Z,153.94
2023-02-11T08:42:38.862Z,154.31
2023-02-11T08:43:38.820Z,154.48
2023-02-11T08:44:38.779Z,156.71
2023-02-11T08:45:38.778Z,156.85
2023-02-11T08:46:38.710Z,157.14
2023-02-11T08:47:38.680Z,157.87
2023-02-11T08:48:38.643Z,155.89
2023-02-11T08:49:38.612Z,156.63
2023-02-11T08:50:38.580Z,156.97
2023-02-11T08:51:38.546Z,157.11
2023-02-11T08:52:38.498Z,157.15
2023-02-11T08:53:38.469Z,156.59
2023-02-11T08:54:38.437Z,156.58
2023-02-11T08:55:38.411Z,157.66
2023-02-11T08:56:38.381Z,158.63
2023-02-11T08:57:38.351Z,158.61
2023-02-11T08:58:38.309Z,159.16
2023-02-11T08:59:38.275Z,158.84
2023-02-11T09:00:38.245Z,157.69
2023-02-11T09:01:38.252Z,158.99
2023-02-11T09:02:38.264Z,157.26
2023-02-11T09:03:38.154Z,156.71
2023-02-11T09:04:38.150Z,156.52
2023-02-11T09:05:38.112Z,157.26
2023-02-11T09:06:38.084Z,158.94
2023-02-11T09:07:38.095Z,157.19
2023-02-11T09:08:38.051Z,158.49
2023-02-11T09:09:38.024Z,157.05
2023-02-11T09:10:38.002Z,155.66
2023-02-11T09:11:37.950Z,155.81
2023-02-11T09:12:37.952Z,154.76
2023-02-11T09:13:37.897Z,155.42
2023-02-11T09:14:37.876Z,156.71
2023-02-11T09:15:37.861Z,156.74
2023-02-11T09:16:37.908Z,157.47
2023-02-11T09:17:37.803Z,158.97
2023-02-11T09:18:37.765Z,158.70
2023-02-11T09:19:37.724Z,159.02
2023-02-11T09:20:37.706Z,157.27
2023-02-11T09:21:37.657Z,159.75
2023-02-11T09:22:37.625Z,159.34
2023-02-11T09:23:37.613Z,160.84
2023-02-11T09:24:37.622Z,158.32
2023-02-11T09:25:37.569Z,158.50
2023-02-11T09:26:37.533Z,159.25
2023-02-11T09:27:37.509Z,160.75
2023-02-11T09:28:37.641Z,160.36
2023-02-11T09:29:37.470Z,160.97
2023-02-11T09:30:37.542Z,158.36
2023-02-11T09:31:37.568Z,160.39
2023-02-11T09:32:37.393Z,159.90
2023-02-11T09:33:37.371Z,159.26
2023-02-11T09:34:37.374Z,160.03
2023-02-11T09:35:37.423Z,160.66
2023-02-11T09:36:37.309Z,160.62
2023-02-11T09:37:37.586Z,160.00
2023-02-11T09:38:37.278Z,161.79
2023-02-11T09:39:38.173Z,167.11
2023-02-11T09:40:37.212Z,166.84
2023-02-11T09:41:37.188Z,168.88
2023-02-11T09:42:37.148Z,168.59
2023-02-11T09:43:37.141Z,168.09
2023-02-11T09:44:37.104Z,168.27
2023-02-11T09:45:37.073Z,168.23
2023-02-11T09:46:37.051Z,167.21
2023-02-11T09:47:37.019Z,166.11
2023-02-11T09:48:36.984Z,167.76
2023-02-11T09:49:36.956Z,164.52
2023-02-11T09:50:36.930Z,165.79
2023-02-11T09:51:36.903Z,163.09
2023-02-11T09:52:36.869Z,163.61
2023-02-11T09:53:36.837Z,164.84
2023-02-11T09:54:36.815Z,162.98
2023-02-11T09:55:36.800Z,162.36
2023-02-11T09:56:36.768Z,162.64
2023-02-11T09:57:36.754Z,162.68
2023-02-11T09:58:37.603Z,162.71
2023-02-11T09:59:36.669Z,162.78
2023-02-11T10:00:36.648Z,162.97
2023-02-11T10:01:36.644Z,162.75
2023-02-11T10:02:36.567Z,160.46
2023-02-11T10:03:36.540Z,162.55
2023-02-11T10:04:36.537Z,163.63
2023-02-11T10:05:36.481Z,159.71
2023-02-11T10:06:36.476Z,159.93
2023-02-11T10:07:36.445Z,157.79
2023-02-11T10:08:36.404Z,158.08
2023-02-11T10:09:36.379Z,158.51
2023-02-11T10:10:36.372Z,160.42
2023-02-11T10:11:36.332Z,157.52
2023-02-11T10:12:36.284Z,155.09
2023-02-11T10:13:36.264Z,154.39
2023-02-11T10:14:36.233Z,153.00
2023-02-11T10:15:36.251Z,154.48
2023-02-11T10:16:36.185Z,148.05
2023-02-11T10:17:36.150Z,143.39
2023-02-11T10:18:36.134Z,143.66
2023-02-11T10:19:36.108Z,138.39
2023-02-11T10:20:36.092Z,143.18
2023-02-11T10:21:36.073Z,138.43
2023-02-11T10:22:36.043Z,144.51
2023-02-11T10:23:36.031Z,144.23
2023-02-11T10:24:35.993Z,146.09
2023-02-11T10:25:35.965Z,145.33
2023-02-11T10:26:35.941Z,146.98
2023-02-11T10:27:35.930Z,148.05
2023-02-11T10:28:35.974Z,150.65
2023-02-11T10:29:35.869Z,148.99
2023-02-11T10:30:35.860Z,145.49
2023-02-11T10:31:36.043Z,147.82
2023-02-11T10:32:35.799Z,148.17
2023-02-11T10:33:35.786Z,146.74
2023-02-11T10:34:35.862Z,143.38
2023-02-11T10:35:35.743Z,142.73
2023-02-11T10:36:35.703Z,140.90
2023-02-11T10:37:35.673Z,141.85
2023-02-11T10:38:35.636Z,140.24
2023-02-11T10:39:35.606Z,129.49
2023-02-11T10:40:35.584Z,127.91
2023-02-11T10:41:35.544Z,124.39
2023-02-11T10:42:35.516Z,126.85
2023-02-11T10:43:35.474Z,129.26
2023-02-11T10:44:35.445Z,127.98
2023-02-11T10:45:35.400Z,132.49
2023-02-11T10:46:35.414Z,119.96
2023-02-11T10:47:35.351Z,108.38
2023-02-11T10:48:35.297Z,99.16
2023-02-11T10:49:35.281Z,93.46
2023-02-11T10:50:35.257Z,93.79
2023-02-11T10:51:35.216Z,91.85
2023-02-11T10:52:35.193Z,90.91
2023-02-11T10:53:35.149Z,88.17
2023-02-11T10:54:35.118Z,89.40
2023-02-11T10:55:35.089Z,87.66
2023-02-11T10:56:35.058Z,86.79
2023-02-11T10:57:35.037Z,85.91
2023-02-11T10:58:35.004Z,73.67
2023-02-11T10:59:34.991Z,67.50
2023-02-11T11:00:34.952Z,66.29
2023-02-11T11:01:34.951Z,66.30
2023-02-11T11:02:34.909Z,66.99
2023-02-11T11:03:34.899Z,68.28
2023-02-11T11:04:34.933Z,59.35
2023-02-11T11:05:34.871Z,59.56
2023-02-11T11:06:34.823Z,53.94
2023-02-11T11:07:34.799Z,55.40
2023-02-11T11:08:34.792Z,54.98
2023-02-11T11:09:34.754Z,52.77
2023-02-11T11:10:34.728Z,54.54
2023-02-11T11:11:34.711Z,51.93
2023-02-11T11:12:34.699Z,49.40
2023-02-11T11:13:34.670Z,45.65
2023-02-11T11:14:34.683Z,38.63
2023-02-11T11:15:34.674Z,33.68
2023-02-11T11:16:34.619Z,46.05
2023-02-11T11:17:34.608Z,59.26
2023-02-11T11:18:34.592Z,71.09
2023-02-11T11:19:34.576Z,81.18
2023-02-11T11:20:34.548Z,88.37
2023-02-11T11:21:34.547Z,94.30
2023-02-11T11:22:34.520Z,100.82
2023-02-11T11:23:34.493Z,101.81
2023-02-11T11:24:34.468Z,105.01
2023-02-11T11:25:34.447Z,108.59
2023-02-11T11:26:34.423Z,109.59
2023-02-11T11:27:34.421Z,112.20
2023-02-11T11:28:34.427Z,113.23
2023-02-11T11:29:34.410Z,114.56
2023-02-11T11:30:34.370Z,115.71
2023-02-11T11:31:34.431Z,117.35
2023-02-11T11:32:34.323Z,117.05
2023-02-11T11:33:34.324Z,118.08
2023-02-11T11:34:34.265Z,116.89
2023-02-11T11:35:34.250Z,117.18
2023-02-11T11:36:34.234Z,119.09
2023-02-11T11:37:34.199Z,118.31
2023-02-11T11:38:34.179Z,119.03
2023-02-11T11:39:34.152Z,117.29
2023-02-11T11:40:34.137Z,118.66
2023-02-11T11:41:34.096Z,118.52
2023-02-11T11:42:34.080Z,118.92
2023-02-11T11:43:34.047Z,119.96
2023-02-11T11:44:34.019Z,118.59
2023-02-11T11:45:33.986Z,120.12
2023-02-11T11:46:34.068Z,121.48
2023-02-11T11:47:33.932Z,121.73
2023-02-11T11:48:33.914Z,123.41
2023-02-11T11:49:33.903Z,123.09
2023-02-11T11:50:33.851Z,124.17
2023-02-11T11:51:33.832Z,122.03
2023-02-11T11:52:33.802Z,123.50
2023-02-11T11:53:33.777Z,125.11
2023-02-11T11:54:33.757Z,126.40
2023-02-11T11:55:33.738Z,124.82
2023-02-11T11:56:33.690Z,125.09
2023-02-11T11:57:33.666Z,125.64
2023-02-11T11:58:33.632Z,126.29
2023-02-11T11:59:33.602Z,126.23
2023-02-11T12:00:33.577Z,125.49
2023-02-11T12:01:33.588Z,126.93
2023-02-11T12:02:33.544Z,127.35
2023-02-11T12:03:33.514Z,126.83
2023-02-11T12:04:33.498Z,126.75
2023-02-11T12:05:36.215Z,127.65
2023-02-11T12:06:33.442Z,130.04
2023-02-11T12:07:33.420Z,129.18
2023-02-11T12:08:33.394Z,127.68
2023-02-11T12:09:33.366Z,129.59
2023-02-11T12:10:33.344Z,130.52
2023-02-11T12:11:33.331Z,130.51
2023-02-11T12:12:33.298Z,131.33
2023-02-11T12:13:33.273Z,130.11
2023-02-11T12:14:33.254Z,130.80
2023-02-11T12:15:33.223Z,132.14
2023-02-11T12:16:33.302Z,132.26
2023-02-11T12:17:33.183Z,132.44
2023-02-11T12:18:33.170Z,132.89
2023-02-11T12:19:33.166Z,134.17
2023-02-11T12:20:33.129Z,132.69
2023-02-11T12:21:33.106Z,134.17
2023-02-11T12:22:33.099Z,135.02
2023-02-11T12:23:33.069Z,136.23
2023-02-11T12:24:33.059Z,135.77
2023-02-11T12:25:33.026Z,135.53
2023-02-11T12:26:32.996Z,136.88
2023-02-11T12:27:32.975Z,138.16
2023-02-11T12:28:33.031Z,137.51
2023-02-11T12:29:32.929Z,134.78
2023-02-11T12:30:32.926Z,137.68
2023-02-11T12:31:32.942Z,138.20
2023-02-11T12:32:32.875Z,136.45
2023-02-11T12:33:32.848Z,138.24
2023-02-11T12:34:32.824Z,137.39
2023-02-11T12:35:32.806Z,139.03
2023-02-11T12:36:32.776Z,139.15
2023-02-11T12:37:32.778Z,139.54
2023-02-11T12:38:32.756Z,140.19
2023-02-11T12:39:32.723Z,140.23
2023-02-11T12:40:32.701Z,141.10
2023-02-11T12:41:32.677Z,138.12
2023-02-11T12:42:32.657Z,142.67
2023-02-11T12:43:32.623Z,139.50
2023-02-11T12:44:32.612Z,141.63
2023-02-11T12:45:32.629Z,142.61
2023-02-11T12:46:32.564Z,141.52
2023-02-11T12:47:32.531Z,143.91
2023-02-11T12:48:35.398Z,140.50
2023-02-11T12:49:32.499Z,140.87
2023-02-11T12:50:32.467Z,140.81
2023-02-11T12:51:32.448Z,136.32
2023-02-11T12:52:32.424Z,134.44
2023-02-11T12:53:32.396Z,133.46
2023-02-11T12:54:32.379Z,132.43
2023-02-11T12:55:32.344Z,131.23
2023-02-11T12:56:32.323Z,129.55
2023-02-11T12:57:32.299Z,129.63
2023-02-11T12:58:44.099Z,126.09
2023-02-11T12:59:33.275Z,126.20
2023-02-11T13:00:32.228Z,126.09
2023-02-11T13:01:32.263Z,126.34
2023-02-11T13:02:32.233Z,128.17
2023-02-11T13:03:32.154Z,128.52
2023-02-11T13:04:32.126Z,129.47
2023-02-11T13:05:32.096Z,129.83
2023-02-11T13:06:32.072Z,131.10
2023-02-11T13:07:32.049Z,130.08
2023-02-11T13:08:32.017Z,126.43
2023-02-11T13:09:31.997Z,129.78
2023-02-11T13:10:31.972Z,129.45
2023-02-11T13:11:31.931Z,126.87
2023-02-11T13:12:31.915Z,128.86
2023-02-11T13:13:31.876Z,129.23
2023-02-11T13:14:31.849Z,127.42
2023-02-11T13:15:31.828Z,126.98
2023-02-11T13:16:31.827Z,126.01
2023-02-11T13:17:31.773Z,126.85
2023-02-11T13:18:31.752Z,126.67
2023-02-11T13:19:31.714Z,124.55
2023-02-11T13:20:31.688Z,124.54
2023-02-11T13:21:31.665Z,123.85
2023-02-11T13:22:31.635Z,123.68
2023-02-11T13:23:31.800Z,118.51
2023-02-11T13:24:31.582Z,114.97
2023-02-11T13:25:31.550Z,111.21
2023-02-11T13:26:31.530Z,109.16
2023-02-11T13:27:31.505Z,107.43
2023-02-11T13:28:31.548Z,106.33
2023-02-11T13:29:31.448Z,105.29
2023-02-11T13:30:31.465Z,102.56
2023-02-11T13:31:31.566Z,100.47
2023-02-11T13:32:31.363Z,101.41
2023-02-11T13:33:31.333Z,101.32
2023-02-11T13:34:31.313Z,103.94
2023-02-11T13:35:31.281Z,100.78
2023-02-11T13:36:31.261Z,98.97
2023-02-11T13:37:31.228Z,97.85
2023-02-11T13:38:31.219Z,98.36
2023-02-11T13:39:31.194Z,95.48
2023-02-11T13:40:31.145Z,96.34
2023-02-11T13:41:31.117Z,93.58
2023-02-11T13:42:31.094Z,94.06
2023-02-11T13:43:31.092Z,94.07
2023-02-11T13:44:31.039Z,95.03
2023-02-11T13:45:31.009Z,91.70
2023-02-11T13:46:30.973Z,90.15
2023-02-11T13:47:30.947Z,89.19
2023-02-11T13:48:30.920Z,90.54
2023-02-11T13:49:30.885Z,93.55
2023-02-11T13:50:30.871Z,95.73
2023-02-11T13:51:30.825Z,89.99
2023-02-11T13:52:30.824Z,89.80
2023-02-11T13:53:30.775Z,89.18
2023-02-11T13:54:30.758Z,90.32
2023-02-11T13:55:30.740Z,91.16
2023-02-11T13:56:30.697Z,90.89
2023-02-11T13:57:30.677Z,95.06